createdAt,value
2018-12-01T00:00:18.064Z,16.13
2018-12-01T00:02:46.415Z,14.77
2018-12-01T00:05:14.735Z,14.63
2018-12-01T00:07:43.089Z,14.37
2018-12-01T00:10:11.530Z,13.53
2018-12-01T00:12:39.868Z,15.70
2018-12-01T00:15:10.257Z,14.23
2018-12-01T00:17:38.709Z,14.80
2018-12-01T00:20:09.653Z,15.17
2018-12-01T00:22:37.977Z,18.07
2018-12-01T00:25:07.455Z,15.00
2018-12-01T00:27:36.028Z,19.90
2018-12-01T00:30:07.609Z,17.23
2018-12-01T00:32:35.949Z,14.37
2018-12-01T00:35:04.509Z,16.67
2018-12-01T00:37:32.842Z,13.03
2018-12-01T00:40:01.250Z,15.70
2018-12-01T00:42:29.581Z,14.13
2018-12-01T00:44:57.953Z,16.43
2018-12-01T00:47:26.574Z,16.67
2018-12-01T00:49:55.129Z,15.80
2018-12-01T00:52:23.450Z,16.77
2018-12-01T00:54:51.805Z,13.17
2018-12-01T00:57:20.150Z,17.53
2018-12-01T00:59:48.562Z,16.43
2018-12-01T01:02:22.131Z,19.37
2018-12-01T01:04:50.485Z,18.90
2018-12-01T01:07:18.821Z,16.77
2018-12-01T01:09:47.181Z,15.17
2018-12-01T01:12:15.515Z,13.87
2018-12-01T01:14:43.874Z,17.50
2018-12-01T01:17:12.261Z,16.30
2018-12-01T01:19:40.593Z,13.30
2018-12-01T01:22:08.929Z,15.90
2018-12-01T01:24:37.281Z,13.93
2018-12-01T01:27:05.936Z,14.70
2018-12-01T01:29:34.343Z,14.87
2018-12-01T01:32:02.676Z,15.37
2018-12-01T01:34:31.633Z,14.70
2018-12-01T01:36:59.962Z,13.73
2018-12-01T01:39:28.305Z,13.90
2018-12-01T01:41:56.639Z,13.07
2018-12-01T01:44:25.006Z,12.40
2018-12-01T01:46:53.333Z,14.57
2018-12-01T01:49:21.695Z,15.03
2018-12-01T01:51:50.027Z,15.10
2018-12-01T01:54:18.362Z,17.23
2018-12-01T01:56:46.830Z,12.63
2018-12-01T01:59:15.166Z,14.70
2018-12-01T02:01:43.513Z,17.33
2018-12-01T02:04:11.974Z,14.10
2018-12-01T02:06:41.307Z,15.50
2018-12-01T02:09:09.642Z,15.90
2018-12-01T02:11:37.994Z,18.07
2018-12-01T02:14:06.340Z,16.90
2018-12-01T02:16:35.288Z,16.63
2018-12-01T02:19:03.697Z,16.97
2018-12-01T02:21:32.325Z,20.03
2018-12-01T02:24:01.976Z,16.07
2018-12-01T02:26:30.588Z,18.03
2018-12-01T02:28:58.910Z,16.53
2018-12-01T02:31:27.775Z,18.07
2018-12-01T02:33:56.083Z,16.20
2018-12-01T02:36:24.409Z,18.40
2018-12-01T02:38:52.709Z,15.70
2018-12-01T02:41:21.042Z,13.33
2018-12-01T02:44:00.648Z,16.07
2018-12-01T02:46:40.456Z,14.77
2018-12-01T02:49:08.759Z,10.00
2018-12-01T02:51:37.096Z,13.97
2018-12-01T02:54:05.484Z,14.03
2018-12-01T02:56:33.821Z,15.43
2018-12-01T02:59:02.130Z,15.93
2018-12-01T03:01:30.488Z,15.50
2018-12-01T03:03:58.836Z,18.93
2018-12-01T03:06:27.160Z,20.03
2018-12-01T03:08:55.515Z,17.77
2018-12-01T03:11:23.839Z,17.00
2018-12-01T03:13:52.142Z,16.57
2018-12-01T03:16:20.598Z,15.60
2018-12-01T03:18:48.905Z,12.67
2018-12-01T03:21:17.229Z,15.37
2018-12-01T03:23:45.539Z,18.33
2018-12-01T03:26:13.941Z,16.60
2018-12-01T03:28:42.254Z,16.30
2018-12-01T03:31:10.573Z,16.10
2018-12-01T03:33:38.880Z,17.90
2018-12-01T03:36:07.269Z,14.97
2018-12-01T03:38:35.564Z,13.93
2018-12-01T03:41:03.936Z,15.30
2018-12-01T03:43:32.242Z,15.87
2018-12-01T03:46:00.549Z,15.03
2018-12-01T03:48:28.869Z,14.73
2018-12-01T03:50:57.229Z,17.10
2018-12-01T03:53:25.537Z,15.37
2018-12-01T03:55:53.868Z,13.87
2018-12-01T03:58:22.195Z,17.23
2018-12-01T04:00:50.508Z,18.30
2018-12-01T04:03:18.829Z,13.60
2018-12-01T04:05:47.169Z,16.07
2018-12-01T04:08:15.484Z,19.77
2018-12-01T04:10:43.797Z,12.53
2018-12-01T04:13:12.208Z,13.40
2018-12-01T04:15:40.718Z,14.83
2018-12-01T04:18:09.064Z,18.23
2018-12-01T04:20:37.360Z,14.13
2018-12-01T04:23:06.009Z,16.00
2018-12-01T04:25:34.313Z,14.93
2018-12-01T04:28:02.646Z,13.27
2018-12-01T04:30:30.944Z,21.07
2018-12-01T04:32:59.277Z,14.53
2018-12-01T04:35:27.604Z,15.40
2018-12-01T04:37:56.289Z,19.23
2018-12-01T04:40:25.127Z,15.90
2018-12-01T04:42:53.525Z,14.50
2018-12-01T04:45:21.851Z,11.80
2018-12-01T04:47:50.209Z,16.60
2018-12-01T04:50:18.948Z,14.90
2018-12-01T04:52:48.165Z,14.23
2018-12-01T04:55:17.580Z,14.87
2018-12-01T04:57:45.874Z,13.87
2018-12-01T05:00:18.243Z,14.23
2018-12-01T05:02:46.557Z,14.87
2018-12-01T05:05:18.893Z,13.70
2018-12-01T05:07:47.248Z,15.47
2018-12-01T05:10:16.256Z,14.03
2018-12-01T05:12:44.557Z,16.53
2018-12-01T05:15:17.574Z,13.03
2018-12-01T05:17:46.190Z,13.83
2018-12-01T05:20:19.421Z,12.63
2018-12-01T05:22:48.172Z,14.27
2018-12-01T05:25:16.548Z,15.43
2018-12-01T05:27:44.889Z,15.90
2018-12-01T05:30:13.246Z,13.87
2018-12-01T05:32:41.572Z,13.57
2018-12-01T05:35:16.128Z,15.77
2018-12-01T05:37:44.443Z,14.87
2018-12-01T05:40:13.416Z,13.70
2018-12-01T05:42:41.733Z,11.17
2018-12-01T05:45:15.505Z,11.10
2018-12-01T05:47:43.850Z,13.43
2018-12-01T05:50:13.101Z,12.70
2018-12-01T05:52:41.402Z,10.77
2018-12-01T05:55:11.560Z,13.27
2018-12-01T05:57:39.859Z,17.20
2018-12-01T06:00:09.778Z,14.20
2018-12-01T06:02:38.080Z,14.87
2018-12-01T06:05:06.743Z,15.07
2018-12-01T06:07:35.072Z,11.93
2018-12-01T06:10:03.589Z,13.00
2018-12-01T06:12:31.917Z,14.33
2018-12-01T06:15:00.232Z,17.77
2018-12-01T06:17:28.565Z,12.13
2018-12-01T06:19:56.869Z,15.73
2018-12-01T06:22:25.200Z,11.97
2018-12-01T06:24:53.506Z,15.20
2018-12-01T06:27:21.829Z,15.60
2018-12-01T06:29:50.129Z,12.00
2018-12-01T06:32:18.459Z,15.97
2018-12-01T06:34:46.849Z,11.03
2018-12-01T06:37:15.197Z,14.63
2018-12-01T06:39:43.527Z,12.27
2018-12-01T06:42:11.885Z,13.87
2018-12-01T06:44:40.493Z,11.57
2018-12-01T06:47:08.860Z,10.77
2018-12-01T06:49:37.168Z,11.27
2018-12-01T06:52:05.725Z,10.90
2018-12-01T06:54:34.036Z,12.90
2018-12-01T06:57:02.364Z,12.53
2018-12-01T06:59:30.764Z,11.53
2018-12-01T07:01:59.092Z,9.23
2018-12-01T07:04:27.396Z,8.90
2018-12-01T07:06:55.978Z,8.67
2018-12-01T07:09:24.291Z,11.80
2018-12-01T07:11:52.620Z,13.07
2018-12-01T07:14:20.950Z,10.57
2018-12-01T07:16:49.356Z,10.50
2018-12-01T07:19:18.445Z,13.77
2018-12-01T07:21:46.829Z,9.10
2018-12-01T07:24:15.228Z,11.73
2018-12-01T07:26:43.631Z,12.87
2018-12-01T07:29:11.979Z,11.85
2018-12-01T07:31:40.352Z,9.03
2018-12-01T07:34:08.748Z,14.63
2018-12-01T07:36:37.138Z,12.97
2018-12-01T07:39:07.671Z,10.07
2018-12-01T07:41:36.036Z,8.53
2018-12-01T07:44:04.614Z,11.60
2018-12-01T07:46:32.953Z,7.97
2018-12-01T07:49:01.281Z,11.07
2018-12-01T07:51:29.624Z,9.33
2018-12-01T07:53:57.941Z,10.13
2018-12-01T07:56:26.290Z,10.93
2018-12-01T07:58:54.641Z,10.53
2018-12-01T08:01:23.063Z,13.97
2018-12-01T08:03:51.407Z,12.13
2018-12-01T08:06:19.761Z,11.13
2018-12-01T08:08:48.268Z,10.03
2018-12-01T08:11:16.609Z,9.53
2018-12-01T08:13:45.005Z,10.63
2018-12-01T08:16:13.366Z,11.60
2018-12-01T08:18:41.742Z,9.10
2018-12-01T08:21:10.081Z,10.47
2018-12-01T08:23:38.458Z,11.70
2018-12-01T08:26:07.040Z,9.33
2018-12-01T08:28:35.512Z,13.53
2018-12-01T08:31:03.901Z,10.60
2018-12-01T08:33:32.298Z,12.47
2018-12-01T08:36:00.643Z,8.47
2018-12-01T08:38:28.981Z,10.97
2018-12-01T08:40:57.302Z,9.60
2018-12-01T08:43:25.627Z,7.10
2018-12-01T08:45:53.932Z,10.80
2018-12-01T08:48:22.421Z,10.20
2018-12-01T08:50:50.749Z,13.00
2018-12-01T08:53:19.076Z,10.20
2018-12-01T08:55:48.588Z,11.13
2018-12-01T08:58:16.905Z,9.93
2018-12-01T09:00:45.213Z,13.33
2018-12-01T09:03:17.218Z,10.03
2018-12-01T09:05:45.520Z,10.33
2018-12-01T09:08:13.841Z,9.67
2018-12-01T09:10:42.198Z,12.57
2018-12-01T09:13:10.530Z,9.20
2018-12-01T09:15:38.822Z,7.83
2018-12-01T09:18:07.198Z,9.57
2018-12-01T09:20:35.508Z,8.50
2018-12-01T09:23:03.851Z,7.00
2018-12-01T09:25:32.168Z,8.03
2018-12-01T09:28:00.484Z,8.20
2018-12-01T09:30:30.073Z,7.67
2018-12-01T09:32:58.452Z,7.77
2018-12-01T09:35:26.764Z,6.47
2018-12-01T09:37:55.074Z,7.80
2018-12-01T09:40:24.025Z,10.67
2018-12-01T09:42:52.368Z,9.43
2018-12-01T09:45:22.824Z,6.70
2018-12-01T09:47:51.944Z,7.40
2018-12-01T09:50:20.272Z,6.93
2018-12-01T09:52:49.936Z,8.23
2018-12-01T09:55:19.641Z,5.20
2018-12-01T09:57:48.412Z,10.80
2018-12-01T10:00:20.092Z,9.20
2018-12-01T10:02:48.496Z,6.03
2018-12-01T10:05:18.066Z,9.57
2018-12-01T10:07:46.579Z,8.20
2018-12-01T10:10:16.044Z,6.40
2018-12-01T10:12:44.952Z,7.80
2018-12-01T10:15:14.557Z,10.77
2018-12-01T10:17:42.907Z,8.50
2018-12-01T10:20:16.753Z,7.33
2018-12-01T10:22:45.120Z,10.60
2018-12-01T10:25:16.355Z,10.93
2018-12-01T10:27:45.969Z,8.20
2018-12-01T10:30:16.148Z,7.00
2018-12-01T10:32:44.680Z,7.67
2018-12-01T10:35:14.206Z,8.43
2018-12-01T10:37:42.561Z,7.83
2018-12-01T10:40:12.100Z,7.50
2018-12-01T10:42:40.398Z,8.60
2018-12-01T10:45:11.333Z,9.07
2018-12-01T10:47:40.017Z,7.17
2018-12-01T10:50:10.325Z,8.37
2018-12-01T10:52:39.185Z,6.77
2018-12-01T10:55:10.784Z,7.63
2018-12-01T10:57:39.294Z,7.67
2018-12-01T11:00:17.850Z,7.70
2018-12-01T11:02:55.590Z,7.50
2018-12-01T11:05:21.311Z,6.57
2018-12-01T11:07:50.643Z,4.50
2018-12-01T11:10:19.144Z,7.17
2018-12-01T11:12:47.684Z,7.33
2018-12-01T11:15:16.308Z,5.90
2018-12-01T11:17:44.668Z,11.73
2018-12-01T11:20:13.006Z,5.20
2018-12-01T11:22:41.329Z,7.00
2018-12-01T11:25:10.938Z,9.83
2018-12-01T11:27:39.313Z,7.27
2018-12-01T11:30:12.057Z,6.10
2018-12-01T11:32:40.570Z,6.63
2018-12-01T11:35:09.096Z,5.33
2018-12-01T11:37:37.749Z,9.43
2018-12-01T11:40:08.940Z,7.50
2018-12-01T11:42:37.269Z,6.03
2018-12-01T11:45:08.496Z,8.17
2018-12-01T11:47:36.853Z,7.53
2018-12-01T11:50:08.639Z,5.27
2018-12-01T11:52:38.361Z,6.50
2018-12-01T11:55:12.651Z,5.47
2018-12-01T11:57:42.211Z,7.30
2018-12-01T12:00:14.010Z,6.33
2018-12-01T12:02:42.354Z,6.33
2018-12-01T12:05:11.717Z,4.40
2018-12-01T12:07:51.490Z,7.23
2018-12-01T12:10:19.857Z,7.57
2018-12-01T12:12:48.184Z,7.90
2018-12-01T12:15:16.641Z,6.77
2018-12-01T12:17:46.601Z,3.77
2018-12-01T12:20:15.068Z,5.33
2018-12-01T12:22:43.439Z,3.50
2018-12-01T12:25:11.777Z,5.27
2018-12-01T12:27:40.096Z,5.50
2018-12-01T12:30:15.625Z,6.00
2018-12-01T12:32:44.542Z,4.57
2018-12-01T12:35:14.137Z,6.93
2018-12-01T12:37:42.459Z,6.03
2018-12-01T12:40:13.080Z,4.77
2018-12-01T12:42:41.402Z,7.30
2018-12-01T12:45:10.993Z,5.60
2018-12-01T12:47:39.315Z,5.53
2018-12-01T12:50:15.192Z,6.43
2018-12-01T12:52:44.149Z,4.03
2018-12-01T12:55:15.293Z,3.23
2018-12-01T12:57:43.830Z,7.80
2018-12-01T13:00:21.669Z,5.83
2018-12-01T13:02:59.201Z,4.83
2018-12-01T13:05:30.861Z,6.17
2018-12-01T13:07:59.173Z,6.10
2018-12-01T13:10:27.520Z,6.23
2018-12-01T13:12:55.996Z,5.60
2018-12-01T13:15:24.324Z,5.07
2018-12-01T13:17:52.661Z,4.60
2018-12-01T13:20:23.092Z,5.37
2018-12-01T13:22:53.633Z,6.50
2018-12-01T13:25:21.966Z,4.00
2018-12-01T13:27:56.712Z,6.33
2018-12-01T13:30:26.572Z,5.57
2018-12-01T13:32:54.906Z,8.67
2018-12-01T13:35:23.251Z,6.33
2018-12-01T13:37:51.589Z,5.97
2018-12-01T13:40:19.921Z,8.43
2018-12-01T13:42:48.269Z,5.87
2018-12-01T13:45:18.153Z,6.70
2018-12-01T13:47:47.854Z,5.63
2018-12-01T13:50:17.143Z,4.87
2018-12-01T13:52:48.932Z,7.23
2018-12-01T13:55:17.237Z,5.23
2018-12-01T13:57:45.578Z,5.80
2018-12-01T14:00:16.229Z,6.30
2018-12-01T14:02:44.573Z,4.80
2018-12-01T14:05:13.070Z,7.23
2018-12-01T14:07:41.501Z,8.90
2018-12-01T14:10:15.621Z,6.43
2018-12-01T14:12:45.285Z,5.07
2018-12-01T14:15:15.598Z,6.07
2018-12-01T14:17:43.970Z,6.37
2018-12-01T14:20:15.141Z,5.60
2018-12-01T14:22:44.699Z,8.87
2018-12-01T14:25:13.814Z,5.03
2018-12-01T14:27:43.652Z,6.07
2018-12-01T14:30:13.973Z,5.87
2018-12-01T14:32:42.341Z,5.57
2018-12-01T14:35:15.029Z,4.13
2018-12-01T14:37:43.637Z,5.93
2018-12-01T14:40:13.057Z,3.57
2018-12-01T14:42:42.009Z,4.33
2018-12-01T14:45:14.577Z,5.87
2018-12-01T14:47:42.956Z,3.40
2018-12-01T14:50:13.477Z,7.53
2018-12-01T14:52:42.296Z,5.53
2018-12-01T14:55:14.661Z,3.83
2018-12-01T14:57:43.013Z,6.17
2018-12-01T15:00:14.189Z,6.23
2018-12-01T15:02:42.528Z,6.23
2018-12-01T15:05:11.545Z,5.20
2018-12-01T15:07:39.885Z,6.10
2018-12-01T15:10:13.317Z,5.80
2018-12-01T15:12:41.661Z,6.60
2018-12-01T15:15:11.932Z,6.17
2018-12-01T15:17:40.317Z,7.23
2018-12-01T15:20:11.169Z,3.93
2018-12-01T15:22:39.753Z,5.50
2018-12-01T15:25:10.884Z,6.80
2018-12-01T15:27:39.224Z,4.73
2018-12-01T15:30:18.069Z,7.37
2018-12-01T15:33:06.853Z,7.17
2018-12-01T15:35:35.216Z,3.20
2018-12-01T15:38:03.617Z,3.80
2018-12-01T15:40:31.952Z,5.27
2018-12-01T15:43:00.322Z,4.00
2018-12-01T15:45:28.673Z,3.77
2018-12-01T15:47:57.033Z,4.90
2018-12-01T15:50:25.360Z,3.90
2018-12-01T15:52:54.905Z,4.97
2018-12-01T15:55:23.902Z,5.25
2018-12-01T15:57:52.640Z,5.53
2018-12-01T16:00:22.004Z,6.03
2018-12-01T16:02:50.437Z,6.07
2018-12-01T16:05:19.689Z,5.30
2018-12-01T16:07:49.142Z,3.83
2018-12-01T16:10:19.280Z,5.93
2018-12-01T16:12:49.840Z,3.97
2018-12-01T16:15:22.946Z,4.53
2018-12-01T16:17:52.262Z,3.80
2018-12-01T16:20:21.376Z,4.20
2018-12-01T16:22:51.411Z,4.50
2018-12-01T16:25:21.979Z,2.40
2018-12-01T16:27:51.246Z,4.97
2018-12-01T16:30:36.532Z,2.57
2018-12-01T16:33:07.284Z,7.73
2018-12-01T16:35:35.585Z,4.23
2018-12-01T16:38:04.655Z,5.73
2018-12-01T16:40:42.625Z,6.63
2018-12-01T16:43:13.441Z,8.03
2018-12-01T16:45:44.093Z,5.57
2018-12-01T16:48:13.774Z,4.77
2018-12-01T16:50:43.419Z,5.33
2018-12-01T16:53:14.343Z,5.53
2018-12-01T16:55:42.877Z,5.23
2018-12-01T16:58:12.439Z,7.23
2018-12-01T17:00:41.553Z,7.77
2018-12-01T17:03:11.681Z,6.03
2018-12-01T17:05:43.338Z,6.67
2018-12-01T17:08:12.790Z,7.23
2018-12-01T17:10:41.879Z,7.00
2018-12-01T17:13:12.038Z,5.03
2018-12-01T17:15:41.606Z,7.80
2018-12-01T17:18:10.300Z,6.60
2018-12-01T17:20:39.823Z,6.10
2018-12-01T17:23:11.932Z,6.43
2018-12-01T17:25:41.905Z,5.80
2018-12-01T17:28:15.395Z,5.13
2018-12-01T17:30:44.571Z,6.10
2018-12-01T17:33:13.259Z,8.00
2018-12-01T17:35:41.997Z,6.67
2018-12-01T17:38:12.858Z,7.03
2018-12-01T17:40:50.005Z,7.47
2018-12-01T17:43:22.618Z,7.80
2018-12-01T17:45:51.084Z,10.57
2018-12-01T17:48:20.739Z,7.27
2018-12-01T17:50:49.210Z,7.47
2018-12-01T17:53:18.856Z,8.60
2018-12-01T17:55:48.139Z,8.53
2018-12-01T17:58:16.633Z,4.77
2018-12-01T18:00:45.995Z,5.60
2018-12-01T18:03:15.303Z,5.80
2018-12-01T18:05:46.464Z,4.60
2018-12-01T18:08:21.765Z,6.63
2018-12-01T18:10:53.381Z,5.50
2018-12-01T18:13:23.098Z,6.87
2018-12-01T18:15:51.729Z,6.63
2018-12-01T18:18:20.815Z,6.50
2018-12-01T18:20:50.437Z,5.90
2018-12-01T18:23:20.257Z,6.07
2018-12-01T18:25:52.122Z,4.57
2018-12-01T18:28:24.157Z,5.97
2018-12-01T18:30:53.006Z,4.87
2018-12-01T18:33:25.655Z,6.73
2018-12-01T18:35:55.657Z,5.67
2018-12-01T18:38:24.345Z,6.30
2018-12-01T18:40:53.257Z,6.03
2018-12-01T18:43:23.171Z,7.07
2018-12-01T18:45:55.221Z,5.50
2018-12-01T18:48:23.608Z,4.60
2018-12-01T18:50:52.712Z,5.43
2018-12-01T18:53:21.536Z,6.17
2018-12-01T18:55:53.271Z,6.63
2018-12-01T18:58:22.053Z,5.97
2018-12-01T19:00:54.158Z,5.93
2018-12-01T19:03:28.238Z,5.07
2018-12-01T19:05:57.445Z,6.33
2018-12-01T19:08:26.449Z,4.77
2018-12-01T19:10:55.127Z,5.23
2018-12-01T19:13:23.814Z,4.73
2018-12-01T19:15:52.283Z,6.07
2018-12-01T19:18:21.405Z,7.33
2018-12-01T19:20:50.474Z,5.80
2018-12-01T19:23:19.490Z,3.50
2018-12-01T19:25:49.477Z,5.47
2018-12-01T19:28:18.616Z,5.50
2018-12-01T19:30:46.985Z,10.87
2018-12-01T19:33:18.628Z,10.17
2018-12-01T19:35:48.932Z,6.83
2018-12-01T19:38:20.670Z,7.73
2018-12-01T19:40:49.049Z,6.87
2018-12-01T19:43:17.344Z,5.07
2018-12-01T19:45:45.660Z,6.43
2018-12-01T19:48:14.160Z,5.83
2018-12-01T19:50:42.560Z,4.67
2018-12-01T19:53:13.215Z,4.90
2018-12-01T19:55:41.800Z,5.93
2018-12-01T19:58:13.804Z,4.37
2018-12-01T20:00:43.477Z,5.60
2018-12-01T20:03:14.206Z,5.67
2018-12-01T20:05:42.517Z,5.43
2018-12-01T20:08:10.977Z,7.57
2018-12-01T20:10:45.341Z,4.87
2018-12-01T20:13:20.227Z,6.97
2018-12-01T20:15:50.552Z,5.70
2018-12-01T20:18:20.557Z,6.13
2018-12-01T20:20:48.893Z,4.83
2018-12-01T20:23:17.185Z,6.20
2018-12-01T20:25:47.361Z,5.47
2018-12-01T20:28:15.713Z,7.17
2018-12-01T20:30:44.080Z,4.00
2018-12-01T20:33:12.781Z,4.10
2018-12-01T20:36:25.639Z,3.77
2018-12-01T20:38:57.158Z,6.70
2018-12-01T20:41:25.495Z,5.00
2018-12-01T20:43:53.815Z,4.60
2018-12-01T20:46:22.136Z,3.97
2018-12-01T20:48:50.536Z,4.77
2018-12-01T20:51:18.881Z,5.17
2018-12-01T20:53:47.172Z,5.40
2018-12-01T20:56:18.281Z,5.03
2018-12-01T20:58:46.596Z,3.30
2018-12-01T21:01:15.153Z,5.27
2018-12-01T21:03:43.448Z,6.03
2018-12-01T21:06:11.759Z,5.60
2018-12-01T21:08:40.054Z,5.80
2018-12-01T21:11:10.628Z,6.73
2018-12-01T21:13:39.018Z,4.20
2018-12-01T21:16:07.796Z,5.60
2018-12-01T21:18:36.120Z,5.03
2018-12-01T21:21:04.460Z,5.37
2018-12-01T21:23:32.948Z,6.80
2018-12-01T21:26:01.253Z,6.03
2018-12-01T21:28:29.573Z,5.63
2018-12-01T21:30:57.876Z,5.07
2018-12-01T21:33:28.296Z,4.43
2018-12-01T21:35:56.729Z,5.40
2018-12-01T21:38:25.058Z,5.63
2018-12-01T21:40:53.416Z,5.87
2018-12-01T21:43:21.766Z,5.00
2018-12-01T21:45:50.177Z,6.90
2018-12-01T21:48:18.577Z,6.17
2018-12-01T21:50:47.649Z,4.83
2018-12-01T21:53:21.311Z,6.80
2018-12-01T21:55:49.611Z,5.57
2018-12-01T21:58:17.927Z,5.37
2018-12-01T22:00:48.836Z,5.17
2018-12-01T22:03:17.952Z,4.77
2018-12-01T22:05:49.004Z,5.27
2018-12-01T22:08:17.598Z,5.93
2018-12-01T22:10:49.571Z,6.93
2018-12-01T22:13:17.884Z,8.33
2018-12-01T22:15:46.189Z,5.20
2018-12-01T22:18:14.517Z,6.67
2018-12-01T22:20:43.299Z,5.30
2018-12-01T22:23:11.601Z,8.00
2018-12-01T22:25:40.005Z,5.60
2018-12-01T22:28:10.669Z,4.37
2018-12-01T22:30:39.611Z,5.30
2018-12-01T22:33:13.684Z,4.47
2018-12-01T22:35:43.971Z,4.07
2018-12-01T22:38:12.984Z,6.03
2018-12-01T22:40:42.797Z,3.43
2018-12-01T22:43:11.914Z,4.70
2018-12-01T22:45:40.508Z,4.60
2018-12-01T22:48:10.975Z,3.33
2018-12-01T22:50:41.161Z,4.63
2018-12-01T22:53:10.038Z,3.30
2018-12-01T22:55:40.102Z,3.33
2018-12-01T22:58:14.285Z,2.97
2018-12-01T23:01:02.300Z,3.23
2018-12-01T23:03:32.616Z,4.30
2018-12-01T23:06:01.790Z,4.37
2018-12-01T23:08:30.965Z,3.03
2018-12-01T23:10:59.809Z,5.37
2018-12-01T23:13:28.541Z,4.73
2018-12-01T23:15:57.181Z,3.27
2018-12-01T23:18:26.826Z,3.03
2018-12-01T23:20:55.889Z,3.37
2018-12-01T23:23:25.071Z,5.27
2018-12-01T23:25:53.892Z,3.13
2018-12-01T23:28:22.283Z,4.17
2018-12-01T23:30:54.126Z,3.43
2018-12-01T23:33:25.356Z,2.13
2018-12-01T23:35:54.357Z,3.27
2018-12-01T23:38:22.980Z,2.03
2018-12-01T23:40:51.842Z,4.17
2018-12-01T23:43:20.500Z,3.13
2018-12-01T23:45:48.824Z,3.00
2018-12-01T23:48:17.136Z,2.50
2018-12-01T23:50:50.749Z,5.80
2018-12-01T23:53:19.738Z,3.20
2018-12-01T23:55:48.069Z,2.67
2018-12-01T23:58:16.376Z,1.73
